sensor_id;sensor_type;location;lat;lon;timestamp;P1;durP1;ratioP1;P2;durP2;ratioP2
25503;SDS011;13410;52.114;5.718;2023-03-01T00:01:21;26.60;;;15.23;;
25503;SDS011;13410;52.114;5.718;2023-03-01T00:03:48;26.75;;;15.75;;
25503;SDS011;13410;52.114;5.718;2023-03-01T00:06:14;29.70;;;16.40;;
25503;SDS011;13410;52.114;5.718;2023-03-01T00:08:40;31.38;;;16.80;;
25503;SDS011;13410;52.114;5.718;2023-03-01T00:11:13;29.10;;;15.50;;
25503;SDS011;13410;52.114;5.718;2023-03-01T00:13:40;26.90;;;14.82;;
25503;SDS011;13410;52.114;5.718;2023-03-01T00:16:08;26.30;;;14.77;;
25503;SDS011;13410;52.114;5.718;2023-03-01T00:18:35;22.83;;;13.45;;
25503;SDS011;13410;52.114;5.718;2023-03-01T00:21:01;21.08;;;12.57;;
25503;SDS011;13410;52.114;5.718;2023-03-01T00:23:27;25.30;;;14.73;;
25503;SDS011;13410;52.114;5.718;2023-03-01T00:25:53;26.90;;;14.60;;
25503;SDS011;13410;52.114;5.718;2023-03-01T00:28:19;21.55;;;13.23;;
25503;SDS011;13410;52.114;5.718;2023-03-01T00:30:45;23.35;;;13.57;;
25503;SDS011;13410;52.114;5.718;2023-03-01T00:33:11;21.48;;;12.65;;
25503;SDS011;13410;52.114;5.718;2023-03-01T00:35:37;23.40;;;12.05;;
25503;SDS011;13410;52.114;5.718;2023-03-01T00:38:03;21.27;;;12.98;;
25503;SDS011;13410;52.114;5.718;2023-03-01T00:40:29;121.13;;;63.25;;
25503;SDS011;13410;52.114;5.718;2023-03-01T00:42:56;29.45;;;15.88;;
25503;SDS011;13410;52.114;5.718;2023-03-01T00:45:22;24.33;;;13.85;;
25503;SDS011;13410;52.114;5.718;2023-03-01T00:47:48;25.80;;;14.23;;
25503;SDS011;13410;52.114;5.718;2023-03-01T00:50:14;27.58;;;15.05;;
25503;SDS011;13410;52.114;5.718;2023-03-01T00:52:40;27.90;;;14.60;;
25503;SDS011;13410;52.114;5.718;2023-03-01T00:55:06;22.70;;;12.90;;
25503;SDS011;13410;52.114;5.718;2023-03-01T00:57:32;25.80;;;14.73;;
25503;SDS011;13410;52.114;5.718;2023-03-01T00:59:58;31.52;;;18.50;;
25503;SDS011;13410;52.114;5.718;2023-03-01T01:02:24;38.42;;;22.33;;
25503;SDS011;13410;52.114;5.718;2023-03-01T01:04:50;61.50;;;30.55;;
25503;SDS011;13410;52.114;5.718;2023-03-01T01:07:15;28.92;;;15.30;;
25503;SDS011;13410;52.114;5.718;2023-03-01T01:09:41;63.60;;;32.53;;
25503;SDS011;13410;52.114;5.718;2023-03-01T01:12:07;62.88;;;32.65;;
25503;SDS011;13410;52.114;5.718;2023-03-01T01:14:33;58.25;;;30.52;;
25503;SDS011;13410;52.114;5.718;2023-03-01T01:16:59;48.55;;;26.58;;
25503;SDS011;13410;52.114;5.718;2023-03-01T01:19:24;42.75;;;22.23;;
25503;SDS011;13410;52.114;5.718;2023-03-01T01:21:50;50.38;;;25.48;;
25503;SDS011;13410;52.114;5.718;2023-03-01T01:24:16;41.40;;;21.92;;
25503;SDS011;13410;52.114;5.718;2023-03-01T01:26:42;42.53;;;21.63;;
25503;SDS011;13410;52.114;5.718;2023-03-01T01:29:09;35.72;;;19.30;;
25503;SDS011;13410;52.114;5.718;2023-03-01T01:31:36;33.85;;;18.60;;
25503;SDS011;13410;52.114;5.718;2023-03-01T01:34:04;30.50;;;17.10;;
25503;SDS011;13410;52.114;5.718;2023-03-01T01:36:31;30.48;;;16.60;;
25503;SDS011;13410;52.114;5.718;2023-03-01T01:38:58;31.48;;;16.95;;
25503;SDS011;13410;52.114;5.718;2023-03-01T01:41:24;30.55;;;16.77;;
25503;SDS011;13410;52.114;5.718;2023-03-01T01:52:10;18.48;;;10.57;;
25503;SDS011;13410;52.114;5.718;2023-03-01T01:54:45;17.20;;;10.13;;
25503;SDS011;13410;52.114;5.718;2023-03-01T01:57:23;15.20;;;9.43;;
25503;SDS011;13410;52.114;5.718;2023-03-01T02:00:09;22.30;;;12.80;;
25503;SDS011;13410;52.114;5.718;2023-03-01T02:02:36;15.00;;;10.15;;
25503;SDS011;13410;52.114;5.718;2023-03-01T02:05:05;20.20;;;12.13;;
25503;SDS011;13410;52.114;5.718;2023-03-01T02:07:52;24.80;;;13.02;;
25503;SDS011;13410;52.114;5.718;2023-03-01T02:10:18;23.38;;;12.63;;
25503;SDS011;13410;52.114;5.718;2023-03-01T02:12:45;19.15;;;11.98;;
25503;SDS011;13410;52.114;5.718;2023-03-01T02:15:11;18.33;;;11.48;;
25503;SDS011;13410;52.114;5.718;2023-03-01T02:17:37;19.23;;;10.88;;
25503;SDS011;13410;52.114;5.718;2023-03-01T02:22:32;18.70;;;11.32;;
25503;SDS011;13410;52.114;5.718;2023-03-01T02:27:58;19.48;;;11.02;;
25503;SDS011;13410;52.114;5.718;2023-03-01T02:30:43;20.98;;;11.60;;
25503;SDS011;13410;52.114;5.718;2023-03-01T02:33:30;18.27;;;11.35;;
25503;SDS011;13410;52.114;5.718;2023-03-01T02:36:03;20.20;;;12.05;;
25503;SDS011;13410;52.114;5.718;2023-03-01T02:38:33;21.33;;;11.70;;
25503;SDS011;13410;52.114;5.718;2023-03-01T02:40:58;20.35;;;11.98;;
25503;SDS011;13410;52.114;5.718;2023-03-01T02:43:27;20.48;;;12.23;;
25503;SDS011;13410;52.114;5.718;2023-03-01T02:45:57;18.42;;;11.77;;
25503;SDS011;13410;52.114;5.718;2023-03-01T02:48:38;19.52;;;11.23;;
25503;SDS011;13410;52.114;5.718;2023-03-01T02:53:59;22.67;;;11.93;;
25503;SDS011;13410;52.114;5.718;2023-03-01T02:56:35;19.00;;;11.70;;
25503;SDS011;13410;52.114;5.718;2023-03-01T02:59:01;22.48;;;12.40;;
25503;SDS011;13410;52.114;5.718;2023-03-01T03:01:28;19.33;;;11.98;;
25503;SDS011;13410;52.114;5.718;2023-03-01T03:04:07;21.85;;;12.50;;
25503;SDS011;13410;52.114;5.718;2023-03-01T03:06:36;18.70;;;12.13;;
25503;SDS011;13410;52.114;5.718;2023-03-01T03:09:02;20.02;;;11.70;;
25503;SDS011;13410;52.114;5.718;2023-03-01T03:11:29;20.60;;;12.18;;
25503;SDS011;13410;52.114;5.718;2023-03-01T03:13:55;21.75;;;11.80;;
25503;SDS011;13410;52.114;5.718;2023-03-01T03:16:21;18.65;;;10.73;;
25503;SDS011;13410;52.114;5.718;2023-03-01T03:18:47;19.38;;;11.50;;
25503;SDS011;13410;52.114;5.718;2023-03-01T03:21:13;21.35;;;12.00;;
25503;SDS011;13410;52.114;5.718;2023-03-01T03:23:39;18.27;;;11.00;;
25503;SDS011;13410;52.114;5.718;2023-03-01T03:26:05;20.83;;;11.63;;
25503;SDS011;13410;52.114;5.718;2023-03-01T03:28:31;20.40;;;12.38;;
25503;SDS011;13410;52.114;5.718;2023-03-01T03:30:58;21.23;;;11.80;;
25503;SDS011;13410;52.114;5.718;2023-03-01T03:33:28;18.13;;;11.40;;
25503;SDS011;13410;52.114;5.718;2023-03-01T03:35:54;20.48;;;11.82;;
25503;SDS011;13410;52.114;5.718;2023-03-01T03:38:20;18.42;;;11.48;;
25503;SDS011;13410;52.114;5.718;2023-03-01T03:40:52;20.42;;;12.02;;
25503;SDS011;13410;52.114;5.718;2023-03-01T03:43:27;22.00;;;11.65;;
25503;SDS011;13410;52.114;5.718;2023-03-01T03:45:54;20.05;;;11.82;;
25503;SDS011;13410;52.114;5.718;2023-03-01T03:48:21;20.35;;;11.40;;
25503;SDS011;13410;52.114;5.718;2023-03-01T03:50:51;17.98;;;11.07;;
25503;SDS011;13410;52.114;5.718;2023-03-01T03:53:19;19.10;;;11.65;;
25503;SDS011;13410;52.114;5.718;2023-03-01T03:55:46;24.48;;;12.23;;
25503;SDS011;13410;52.114;5.718;2023-03-01T03:58:14;18.17;;;11.18;;
25503;SDS011;13410;52.114;5.718;2023-03-01T04:00:42;24.65;;;13.70;;
25503;SDS011;13410;52.114;5.718;2023-03-01T04:03:10;23.27;;;12.82;;
25503;SDS011;13410;52.114;5.718;2023-03-01T04:05:37;21.70;;;11.95;;
25503;SDS011;13410;52.114;5.718;2023-03-01T04:08:04;18.98;;;11.32;;
25503;SDS011;13410;52.114;5.718;2023-03-01T04:10:34;21.95;;;11.30;;
25503;SDS011;13410;52.114;5.718;2023-03-01T04:13:06;20.05;;;11.60;;
25503;SDS011;13410;52.114;5.718;2023-03-01T04:15:33;18.90;;;11.95;;
25503;SDS011;13410;52.114;5.718;2023-03-01T04:17:59;22.10;;;12.20;;
25503;SDS011;13410;52.114;5.718;2023-03-01T04:20:26;21.23;;;12.13;;
25503;SDS011;13410;52.114;5.718;2023-03-01T04:22:58;21.23;;;12.55;;
25503;SDS011;13410;52.114;5.718;2023-03-01T04:25:58;18.85;;;11.27;;
25503;SDS011;13410;52.114;5.718;2023-03-01T04:28:25;23.10;;;12.52;;
25503;SDS011;13410;52.114;5.718;2023-03-01T04:30:56;22.83;;;13.02;;
25503;SDS011;13410;52.114;5.718;2023-03-01T04:35:49;20.85;;;12.20;;
25503;SDS011;13410;52.114;5.718;2023-03-01T04:38:15;22.65;;;13.27;;
25503;SDS011;13410;52.114;5.718;2023-03-01T04:40:42;31.85;;;16.30;;
25503;SDS011;13410;52.114;5.718;2023-03-01T04:43:08;31.15;;;15.70;;
25503;SDS011;13410;52.114;5.718;2023-03-01T04:45:35;28.17;;;15.48;;
25503;SDS011;13410;52.114;5.718;2023-03-01T04:48:01;30.08;;;17.00;;
25503;SDS011;13410;52.114;5.718;2023-03-01T04:50:28;32.65;;;16.35;;
25503;SDS011;13410;52.114;5.718;2023-03-01T04:52:54;35.72;;;17.55;;
25503;SDS011;13410;52.114;5.718;2023-03-01T04:55:23;31.27;;;16.00;;
25503;SDS011;13410;52.114;5.718;2023-03-01T04:57:52;27.42;;;15.07;;
25503;SDS011;13410;52.114;5.718;2023-03-01T05:00:18;26.55;;;15.80;;
25503;SDS011;13410;52.114;5.718;2023-03-01T05:05:21;39.78;;;21.13;;
25503;SDS011;13410;52.114;5.718;2023-03-01T05:08:13;38.28;;;21.20;;
25503;SDS011;13410;52.114;5.718;2023-03-01T05:10:43;37.33;;;21.70;;
25503;SDS011;13410;52.114;5.718;2023-03-01T05:13:11;35.42;;;20.77;;
25503;SDS011;13410;52.114;5.718;2023-03-01T05:15:38;33.13;;;17.05;;
25503;SDS011;13410;52.114;5.718;2023-03-01T05:18:04;21.42;;;13.52;;
25503;SDS011;13410;52.114;5.718;2023-03-01T05:20:36;25.40;;;14.77;;
25503;SDS011;13410;52.114;5.718;2023-03-01T05:23:03;32.45;;;17.85;;
25503;SDS011;13410;52.114;5.718;2023-03-01T05:25:30;32.03;;;18.10;;
25503;SDS011;13410;52.114;5.718;2023-03-01T05:27:58;33.67;;;17.08;;
25503;SDS011;13410;52.114;5.718;2023-03-01T05:30:24;29.58;;;15.38;;
25503;SDS011;13410;52.114;5.718;2023-03-01T05:32:50;23.58;;;13.48;;
25503;SDS011;13410;52.114;5.718;2023-03-01T05:35:20;29.52;;;17.05;;
25503;SDS011;13410;52.114;5.718;2023-03-01T05:37:47;29.05;;;16.77;;
25503;SDS011;13410;52.114;5.718;2023-03-01T05:40:18;26.85;;;15.82;;
25503;SDS011;13410;52.114;5.718;2023-03-01T05:42:46;27.55;;;16.48;;
25503;SDS011;13410;52.114;5.718;2023-03-01T05:45:14;24.45;;;14.85;;
25503;SDS011;13410;52.114;5.718;2023-03-01T05:47:41;26.30;;;15.35;;
25503;SDS011;13410;52.114;5.718;2023-03-01T05:50:10;27.33;;;16.65;;
25503;SDS011;13410;52.114;5.718;2023-03-01T05:52:37;30.88;;;16.48;;
25503;SDS011;13410;52.114;5.718;2023-03-01T05:55:03;28.80;;;16.25;;
25503;SDS011;13410;52.114;5.718;2023-03-01T05:57:29;27.52;;;15.27;;
25503;SDS011;13410;52.114;5.718;2023-03-01T05:59:55;24.08;;;14.32;;
25503;SDS011;13410;52.114;5.718;2023-03-01T06:02:20;21.52;;;11.60;;
25503;SDS011;13410;52.114;5.718;2023-03-01T06:04:46;17.95;;;11.27;;
25503;SDS011;13410;52.114;5.718;2023-03-01T06:07:11;17.67;;;11.10;;
25503;SDS011;13410;52.114;5.718;2023-03-01T06:09:37;19.58;;;11.77;;
25503;SDS011;13410;52.114;5.718;2023-03-01T06:12:02;21.00;;;11.85;;
25503;SDS011;13410;52.114;5.718;2023-03-01T06:14:28;19.27;;;11.40;;
25503;SDS011;13410;52.114;5.718;2023-03-01T06:16:54;18.95;;;12.13;;
25503;SDS011;13410;52.114;5.718;2023-03-01T06:19:19;23.00;;;11.82;;
25503;SDS011;13410;52.114;5.718;2023-03-01T06:21:45;25.35;;;12.90;;
25503;SDS011;13410;52.114;5.718;2023-03-01T06:24:10;25.58;;;14.13;;
25503;SDS011;13410;52.114;5.718;2023-03-01T06:26:36;29.85;;;12.40;;
25503;SDS011;13410;52.114;5.718;2023-03-01T06:29:01;25.95;;;12.77;;
25503;SDS011;13410;52.114;5.718;2023-03-01T06:31:27;26.55;;;12.00;;
25503;SDS011;13410;52.114;5.718;2023-03-01T06:33:52;24.58;;;13.20;;
25503;SDS011;13410;52.114;5.718;2023-03-01T06:36:18;23.33;;;13.02;;
25503;SDS011;13410;52.114;5.718;2023-03-01T06:38:46;27.23;;;13.45;;
25503;SDS011;13410;52.114;5.718;2023-03-01T06:41:11;24.65;;;13.13;;
25503;SDS011;13410;52.114;5.718;2023-03-01T06:43:37;24.02;;;12.48;;
25503;SDS011;13410;52.114;5.718;2023-03-01T06:46:05;24.77;;;12.13;;
25503;SDS011;13410;52.114;5.718;2023-03-01T06:48:32;21.08;;;13.00;;
25503;SDS011;13410;52.114;5.718;2023-03-01T06:50:59;20.92;;;11.73;;
25503;SDS011;13410;52.114;5.718;2023-03-01T06:53:26;23.90;;;11.80;;
25503;SDS011;13410;52.114;5.718;2023-03-01T06:55:55;19.67;;;10.82;;
25503;SDS011;13410;52.114;5.718;2023-03-01T06:58:21;25.02;;;11.27;;
25503;SDS011;13410;52.114;5.718;2023-03-01T07:00:47;25.05;;;12.80;;
25503;SDS011;13410;52.114;5.718;2023-03-01T07:03:13;20.27;;;12.15;;
25503;SDS011;13410;52.114;5.718;2023-03-01T07:05:38;26.92;;;12.38;;
25503;SDS011;13410;52.114;5.718;2023-03-01T07:08:04;19.13;;;11.70;;
25503;SDS011;13410;52.114;5.718;2023-03-01T07:10:30;20.83;;;11.63;;
25503;SDS011;13410;52.114;5.718;2023-03-01T07:12:56;31.33;;;12.32;;
25503;SDS011;13410;52.114;5.718;2023-03-01T07:15:22;32.55;;;14.55;;
25503;SDS011;13410;52.114;5.718;2023-03-01T07:17:48;28.55;;;15.45;;
25503;SDS011;13410;52.114;5.718;2023-03-01T07:20:15;33.42;;;15.52;;
25503;SDS011;13410;52.114;5.718;2023-03-01T07:22:42;34.17;;;15.77;;
25503;SDS011;13410;52.114;5.718;2023-03-01T07:25:08;33.53;;;16.20;;
25503;SDS011;13410;52.114;5.718;2023-03-01T07:27:34;28.80;;;14.20;;
25503;SDS011;13410;52.114;5.718;2023-03-01T07:30:00;28.40;;;14.18;;
25503;SDS011;13410;52.114;5.718;2023-03-01T07:32:26;21.90;;;12.32;;
25503;SDS011;13410;52.114;5.718;2023-03-01T07:34:51;18.33;;;10.63;;
25503;SDS011;13410;52.114;5.718;2023-03-01T07:37:17;22.23;;;10.90;;
25503;SDS011;13410;52.114;5.718;2023-03-01T07:39:42;17.55;;;10.75;;
25503;SDS011;13410;52.114;5.718;2023-03-01T07:42:08;26.23;;;10.63;;
25503;SDS011;13410;52.114;5.718;2023-03-01T07:44:33;23.25;;;9.80;;
25503;SDS011;13410;52.114;5.718;2023-03-01T07:46:59;18.15;;;9.93;;
25503;SDS011;13410;52.114;5.718;2023-03-01T07:49:25;18.90;;;11.15;;
25503;SDS011;13410;52.114;5.718;2023-03-01T07:51:53;19.02;;;11.05;;
25503;SDS011;13410;52.114;5.718;2023-03-01T07:54:19;20.25;;;12.23;;
25503;SDS011;13410;52.114;5.718;2023-03-01T07:56:45;23.65;;;13.10;;
25503;SDS011;13410;52.114;5.718;2023-03-01T07:59:11;18.08;;;10.82;;
25503;SDS011;13410;52.114;5.718;2023-03-01T08:01:36;17.73;;;10.73;;
25503;SDS011;13410;52.114;5.718;2023-03-01T08:04:02;23.38;;;11.48;;
25503;SDS011;13410;52.114;5.718;2023-03-01T08:06:29;18.02;;;10.85;;
25503;SDS011;13410;52.114;5.718;2023-03-01T08:08:55;16.33;;;10.30;;
25503;SDS011;13410;52.114;5.718;2023-03-01T08:11:21;18.33;;;10.27;;
25503;SDS011;13410;52.114;5.718;2023-03-01T08:13:47;14.98;;;9.68;;
25503;SDS011;13410;52.114;5.718;2023-03-01T08:16:14;17.90;;;10.02;;
25503;SDS011;13410;52.114;5.718;2023-03-01T08:18:40;17.58;;;10.55;;
25503;SDS011;13410;52.114;5.718;2023-03-01T08:21:11;15.30;;;9.13;;
25503;SDS011;13410;52.114;5.718;2023-03-01T08:23:38;15.50;;;9.20;;
25503;SDS011;13410;52.114;5.718;2023-03-01T08:26:05;15.43;;;9.40;;
25503;SDS011;13410;52.114;5.718;2023-03-01T08:28:41;16.52;;;9.45;;
25503;SDS011;13410;52.114;5.718;2023-03-01T08:31:18;18.25;;;9.57;;
25503;SDS011;13410;52.114;5.718;2023-03-01T08:33:47;16.40;;;9.68;;
25503;SDS011;13410;52.114;5.718;2023-03-01T08:36:15;14.18;;;9.02;;
25503;SDS011;13410;52.114;5.718;2023-03-01T08:38:42;20.77;;;9.02;;
25503;SDS011;13410;52.114;5.718;2023-03-01T08:41:07;15.07;;;8.82;;
25503;SDS011;13410;52.114;5.718;2023-03-01T08:43:33;15.77;;;8.80;;
25503;SDS011;13410;52.114;5.718;2023-03-01T08:45:58;14.32;;;8.82;;
25503;SDS011;13410;52.114;5.718;2023-03-01T08:48:24;13.77;;;8.30;;
25503;SDS011;13410;52.114;5.718;2023-03-01T08:50:50;15.07;;;8.93;;
25503;SDS011;13410;52.114;5.718;2023-03-01T08:53:16;14.85;;;9.00;;
25503;SDS011;13410;52.114;5.718;2023-03-01T08:55:41;16.83;;;8.63;;
25503;SDS011;13410;52.114;5.718;2023-03-01T08:58:07;18.70;;;9.85;;
25503;SDS011;13410;52.114;5.718;2023-03-01T09:00:32;12.90;;;8.57;;
25503;SDS011;13410;52.114;5.718;2023-03-01T09:02:59;14.82;;;9.20;;
25503;SDS011;13410;52.114;5.718;2023-03-01T09:05:25;20.95;;;11.48;;
25503;SDS011;13410;52.114;5.718;2023-03-01T09:07:51;14.98;;;10.32;;
25503;SDS011;13410;52.114;5.718;2023-03-01T09:10:16;15.18;;;9.18;;
25503;SDS011;13410;52.114;5.718;2023-03-01T09:12:42;18.20;;;9.68;;
25503;SDS011;13410;52.114;5.718;2023-03-01T09:15:08;15.23;;;9.63;;
25503;SDS011;13410;52.114;5.718;2023-03-01T09:17:34;14.18;;;8.90;;
25503;SDS011;13410;52.114;5.718;2023-03-01T09:19:59;15.00;;;8.90;;
25503;SDS011;13410;52.114;5.718;2023-03-01T09:22:25;13.93;;;8.52;;
25503;SDS011;13410;52.114;5.718;2023-03-01T09:24:50;13.38;;;8.38;;
25503;SDS011;13410;52.114;5.718;2023-03-01T09:27:16;14.10;;;8.52;;
25503;SDS011;13410;52.114;5.718;2023-03-01T09:29:43;9.10;;;5.13;;
25503;SDS011;13410;52.114;5.718;2023-03-01T09:32:09;9.90;;;5.43;;
25503;SDS011;13410;52.114;5.718;2023-03-01T09:34:35;7.80;;;4.68;;
25503;SDS011;13410;52.114;5.718;2023-03-01T09:37:21;7.53;;;4.80;;
25503;SDS011;13410;52.114;5.718;2023-03-01T09:39:46;7.60;;;3.92;;
25503;SDS011;13410;52.114;5.718;2023-03-01T09:42:12;6.03;;;3.38;;
25503;SDS011;13410;52.114;5.718;2023-03-01T09:47:17;8.98;;;4.70;;
25503;SDS011;13410;52.114;5.718;2023-03-01T09:49:46;9.82;;;3.75;;
25503;SDS011;13410;52.114;5.718;2023-03-01T09:52:23;8.85;;;4.22;;
25503;SDS011;13410;52.114;5.718;2023-03-01T09:58:25;6.97;;;3.50;;
25503;SDS011;13410;52.114;5.718;2023-03-01T10:01:02;7.85;;;4.40;;
25503;SDS011;13410;52.114;5.718;2023-03-01T10:04:06;7.18;;;4.22;;
25503;SDS011;13410;52.114;5.718;2023-03-01T10:06:55;6.50;;;2.92;;
25503;SDS011;13410;52.114;5.718;2023-03-01T10:09:36;4.97;;;2.70;;
25503;SDS011;13410;52.114;5.718;2023-03-01T10:12:04;4.25;;;2.47;;
25503;SDS011;13410;52.114;5.718;2023-03-01T10:17:44;6.28;;;3.80;;
25503;SDS011;13410;52.114;5.718;2023-03-01T10:20:17;8.48;;;4.82;;
25503;SDS011;13410;52.114;5.718;2023-03-01T10:22:45;6.35;;;3.03;;
25503;SDS011;13410;52.114;5.718;2023-03-01T10:25:15;7.82;;;4.05;;
25503;SDS011;13410;52.114;5.718;2023-03-01T10:28:05;6.47;;;3.88;;
25503;SDS011;13410;52.114;5.718;2023-03-01T10:30:54;5.97;;;3.17;;
25503;SDS011;13410;52.114;5.718;2023-03-01T10:33:24;7.18;;;3.90;;
25503;SDS011;13410;52.114;5.718;2023-03-01T10:36:02;7.72;;;3.90;;
25503;SDS011;13410;52.114;5.718;2023-03-01T10:38:30;7.85;;;4.60;;
25503;SDS011;13410;52.114;5.718;2023-03-01T10:41:11;6.95;;;4.00;;
25503;SDS011;13410;52.114;5.718;2023-03-01T10:43:44;6.25;;;3.80;;
25503;SDS011;13410;52.114;5.718;2023-03-01T10:51:42;10.13;;;4.05;;
25503;SDS011;13410;52.114;5.718;2023-03-01T10:56:58;8.20;;;4.57;;
25503;SDS011;13410;52.114;5.718;2023-03-01T10:59:30;9.02;;;4.45;;
25503;SDS011;13410;52.114;5.718;2023-03-01T11:02:17;7.30;;;3.30;;
25503;SDS011;13410;52.114;5.718;2023-03-01T11:05:00;12.95;;;4.93;;
25503;SDS011;13410;52.114;5.718;2023-03-01T11:07:27;7.95;;;3.72;;
25503;SDS011;13410;52.114;5.718;2023-03-01T11:09:53;7.97;;;3.30;;
25503;SDS011;13410;52.114;5.718;2023-03-01T11:12:20;7.55;;;3.47;;
25503;SDS011;13410;52.114;5.718;2023-03-01T11:14:53;7.32;;;3.83;;
25503;SDS011;13410;52.114;5.718;2023-03-01T11:17:28;7.78;;;4.53;;
25503;SDS011;13410;52.114;5.718;2023-03-01T11:22:49;6.82;;;4.40;;
25503;SDS011;13410;52.114;5.718;2023-03-01T11:25:21;7.50;;;3.95;;
25503;SDS011;13410;52.114;5.718;2023-03-01T11:27:50;7.95;;;3.75;;
25503;SDS011;13410;52.114;5.718;2023-03-01T11:30:20;5.45;;;3.42;;
25503;SDS011;13410;52.114;5.718;2023-03-01T11:35:37;8.75;;;5.07;;
25503;SDS011;13410;52.114;5.718;2023-03-01T11:38:16;6.82;;;3.90;;
25503;SDS011;13410;52.114;5.718;2023-03-01T11:40:47;7.93;;;4.65;;
25503;SDS011;13410;52.114;5.718;2023-03-01T11:49:19;9.57;;;4.78;;
25503;SDS011;13410;52.114;5.718;2023-03-01T12:00:36;6.82;;;3.95;;
25503;SDS011;13410;52.114;5.718;2023-03-01T12:03:22;7.82;;;4.68;;
25503;SDS011;13410;52.114;5.718;2023-03-01T12:06:06;9.23;;;4.10;;
25503;SDS011;13410;52.114;5.718;2023-03-01T12:08:59;7.93;;;4.45;;
25503;SDS011;13410;52.114;5.718;2023-03-01T12:11:58;8.00;;;4.75;;
25503;SDS011;13410;52.114;5.718;2023-03-01T12:14:39;7.10;;;4.50;;
25503;SDS011;13410;52.114;5.718;2023-03-01T12:20:00;7.53;;;4.65;;
25503;SDS011;13410;52.114;5.718;2023-03-01T12:28:19;8.25;;;4.40;;
25503;SDS011;13410;52.114;5.718;2023-03-01T12:31:14;7.43;;;4.70;;
25503;SDS011;13410;52.114;5.718;2023-03-01T12:48:46;6.75;;;3.30;;
25503;SDS011;13410;52.114;5.718;2023-03-01T12:51:32;7.95;;;3.97;;
25503;SDS011;13410;52.114;5.718;2023-03-01T12:54:01;5.30;;;2.85;;
25503;SDS011;13410;52.114;5.718;2023-03-01T12:56:34;5.93;;;3.78;;
25503;SDS011;13410;52.114;5.718;2023-03-01T13:15:35;5.85;;;3.65;;
25503;SDS011;13410;52.114;5.718;2023-03-01T13:18:11;6.57;;;3.65;;
25503;SDS011;13410;52.114;5.718;2023-03-01T13:20:51;6.95;;;4.03;;
25503;SDS011;13410;52.114;5.718;2023-03-01T13:36:58;7.00;;;4.38;;
25503;SDS011;13410;52.114;5.718;2023-03-01T13:39:04;7.43;;;4.47;;
25503;SDS011;13410;52.114;5.718;2023-03-01T13:41:54;7.63;;;4.40;;
25503;SDS011;13410;52.114;5.718;2023-03-01T13:44:35;9.20;;;5.13;;
25503;SDS011;13410;52.114;5.718;2023-03-01T13:49:36;8.60;;;3.92;;
25503;SDS011;13410;52.114;5.718;2023-03-01T13:57:38;8.40;;;4.22;;
25503;SDS011;13410;52.114;5.718;2023-03-01T14:00:07;7.38;;;4.20;;
25503;SDS011;13410;52.114;5.718;2023-03-01T14:03:00;6.32;;;4.00;;
25503;SDS011;13410;52.114;5.718;2023-03-01T14:05:28;8.32;;;4.65;;
25503;SDS011;13410;52.114;5.718;2023-03-01T14:07:54;8.05;;;4.65;;
25503;SDS011;13410;52.114;5.718;2023-03-01T14:10:20;7.30;;;4.55;;
25503;SDS011;13410;52.114;5.718;2023-03-01T14:12:51;6.72;;;3.97;;
25503;SDS011;13410;52.114;5.718;2023-03-01T14:15:36;7.18;;;3.90;;
25503;SDS011;13410;52.114;5.718;2023-03-01T14:18:12;7.05;;;4.07;;
25503;SDS011;13410;52.114;5.718;2023-03-01T14:20:46;7.18;;;4.35;;
25503;SDS011;13410;52.114;5.718;2023-03-01T14:23:17;5.97;;;3.55;;
25503;SDS011;13410;52.114;5.718;2023-03-01T14:25:46;6.72;;;4.00;;
25503;SDS011;13410;52.114;5.718;2023-03-01T14:28:18;6.88;;;4.07;;
25503;SDS011;13410;52.114;5.718;2023-03-01T14:30:52;8.13;;;4.32;;
25503;SDS011;13410;52.114;5.718;2023-03-01T14:38:36;7.10;;;3.78;;
25503;SDS011;13410;52.114;5.718;2023-03-01T14:41:06;8.48;;;4.07;;
25503;SDS011;13410;52.114;5.718;2023-03-01T14:46:01;5.88;;;3.38;;
25503;SDS011;13410;52.114;5.718;2023-03-01T14:48:27;5.05;;;2.83;;
25503;SDS011;13410;52.114;5.718;2023-03-01T14:50:54;6.25;;;3.70;;
25503;SDS011;13410;52.114;5.718;2023-03-01T14:53:25;6.95;;;3.78;;
25503;SDS011;13410;52.114;5.718;2023-03-01T14:55:57;6.30;;;3.70;;
25503;SDS011;13410;52.114;5.718;2023-03-01T14:58:28;8.20;;;4.10;;
25503;SDS011;13410;52.114;5.718;2023-03-01T15:00:58;6.72;;;3.60;;
25503;SDS011;13410;52.114;5.718;2023-03-01T15:03:27;7.07;;;3.95;;
25503;SDS011;13410;52.114;5.718;2023-03-01T15:05:59;6.25;;;3.65;;
25503;SDS011;13410;52.114;5.718;2023-03-01T15:08:27;5.82;;;3.40;;
25503;SDS011;13410;52.114;5.718;2023-03-01T15:11:05;10.82;;;3.35;;
25503;SDS011;13410;52.114;5.718;2023-03-01T15:13:53;4.82;;;2.97;;
25503;SDS011;13410;52.114;5.718;2023-03-01T15:16:21;5.30;;;3.35;;
25503;SDS011;13410;52.114;5.718;2023-03-01T15:18:56;6.22;;;3.78;;
25503;SDS011;13410;52.114;5.718;2023-03-01T15:21:25;7.40;;;3.65;;
25503;SDS011;13410;52.114;5.718;2023-03-01T15:23:59;8.68;;;3.97;;
25503;SDS011;13410;52.114;5.718;2023-03-01T15:27:13;5.75;;;3.92;;
25503;SDS011;13410;52.114;5.718;2023-03-01T15:29:33;7.28;;;4.32;;
25503;SDS011;13410;52.114;5.718;2023-03-01T15:32:23;6.97;;;3.90;;
25503;SDS011;13410;52.114;5.718;2023-03-01T15:34:56;7.78;;;4.50;;
25503;SDS011;13410;52.114;5.718;2023-03-01T15:40:17;9.25;;;4.50;;
25503;SDS011;13410;52.114;5.718;2023-03-01T15:42:56;6.68;;;4.43;;
25503;SDS011;13410;52.114;5.718;2023-03-01T15:45:30;8.50;;;4.40;;
25503;SDS011;13410;52.114;5.718;2023-03-01T15:48:00;9.70;;;4.18;;
25503;SDS011;13410;52.114;5.718;2023-03-01T15:52:58;12.18;;;4.85;;
25503;SDS011;13410;52.114;5.718;2023-03-01T15:55:29;9.80;;;4.45;;
25503;SDS011;13410;52.114;5.718;2023-03-01T15:58:20;9.63;;;5.28;;
25503;SDS011;13410;52.114;5.718;2023-03-01T16:00:46;9.40;;;4.50;;
25503;SDS011;13410;52.114;5.718;2023-03-01T16:03:13;11.85;;;4.97;;
25503;SDS011;13410;52.114;5.718;2023-03-01T16:05:46;9.80;;;4.88;;
25503;SDS011;13410;52.114;5.718;2023-03-01T16:08:13;8.52;;;4.70;;
25503;SDS011;13410;52.114;5.718;2023-03-01T16:10:40;7.43;;;4.20;;
25503;SDS011;13410;52.114;5.718;2023-03-01T16:13:08;7.00;;;4.03;;
25503;SDS011;13410;52.114;5.718;2023-03-01T16:15:34;6.97;;;4.25;;
25503;SDS011;13410;52.114;5.718;2023-03-01T16:18:00;11.05;;;4.38;;
25503;SDS011;13410;52.114;5.718;2023-03-01T16:20:27;8.70;;;4.65;;
25503;SDS011;13410;52.114;5.718;2023-03-01T16:22:54;8.48;;;4.50;;
25503;SDS011;13410;52.114;5.718;2023-03-01T16:25:22;10.38;;;4.80;;
25503;SDS011;13410;52.114;5.718;2023-03-01T16:27:49;10.43;;;4.65;;
25503;SDS011;13410;52.114;5.718;2023-03-01T16:30:16;8.98;;;4.63;;
25503;SDS011;13410;52.114;5.718;2023-03-01T16:32:44;8.52;;;4.97;;
25503;SDS011;13410;52.114;5.718;2023-03-01T16:35:12;8.70;;;4.53;;
25503;SDS011;13410;52.114;5.718;2023-03-01T16:37:39;7.40;;;4.38;;
25503;SDS011;13410;52.114;5.718;2023-03-01T16:40:05;8.43;;;4.82;;
25503;SDS011;13410;52.114;5.718;2023-03-01T16:42:41;7.18;;;4.32;;
25503;SDS011;13410;52.114;5.718;2023-03-01T16:45:07;8.57;;;4.70;;
25503;SDS011;13410;52.114;5.718;2023-03-01T16:47:34;7.57;;;4.47;;
25503;SDS011;13410;52.114;5.718;2023-03-01T16:50:00;9.82;;;4.55;;
25503;SDS011;13410;52.114;5.718;2023-03-01T16:52:25;9.15;;;5.10;;
25503;SDS011;13410;52.114;5.718;2023-03-01T16:54:51;7.93;;;4.30;;
25503;SDS011;13410;52.114;5.718;2023-03-01T16:57:17;7.93;;;4.13;;
25503;SDS011;13410;52.114;5.718;2023-03-01T16:59:43;7.00;;;4.40;;